createdAt,value
2018-07-31T00:00:33.767Z,7.50
2018-07-31T00:01:33.711Z,8.20
2018-07-31T00:02:33.654Z,7.40
2018-07-31T00:03:33.684Z,7.60
2018-07-31T00:04:33.536Z,7.30
2018-07-31T00:05:33.479Z,7.70
2018-07-31T00:06:33.419Z,7.80
2018-07-31T00:07:33.363Z,7.80
2018-07-31T00:08:33.303Z,8.00
2018-07-31T00:09:33.248Z,7.60
2018-07-31T00:10:33.222Z,7.90
2018-07-31T00:11:33.132Z,7.70
2018-07-31T00:12:33.072Z,7.90
2018-07-31T00:13:33.018Z,7.70
2018-07-31T00:14:32.961Z,7.80
2018-07-31T00:15:32.900Z,8.30
2018-07-31T00:16:32.842Z,8.20
2018-07-31T00:17:32.786Z,7.70
2018-07-31T00:18:32.728Z,8.30
2018-07-31T00:19:32.669Z,8.00
2018-07-31T00:20:32.611Z,7.60
2018-07-31T00:21:32.553Z,7.60
2018-07-31T00:22:32.499Z,8.10
2018-07-31T00:23:32.440Z,8.00
2018-07-31T00:24:32.379Z,7.70
2018-07-31T00:25:32.324Z,8.10
2018-07-31T00:26:32.263Z,8.10
2018-07-31T00:27:32.205Z,7.90
2018-07-31T00:28:32.149Z,8.30
2018-07-31T00:29:32.090Z,8.00
2018-07-31T00:30:32.030Z,8.50
2018-07-31T00:31:31.977Z,7.90
2018-07-31T00:32:31.917Z,8.30
2018-07-31T00:33:31.860Z,8.30
2018-07-31T00:34:31.800Z,8.00
2018-07-31T00:35:31.742Z,8.40
2018-07-31T00:36:31.684Z,8.50
2018-07-31T00:37:31.627Z,8.10
2018-07-31T00:38:31.568Z,8.00
2018-07-31T00:39:31.511Z,8.30
2018-07-31T00:40:31.451Z,8.20
2018-07-31T00:41:31.394Z,7.70
2018-07-31T00:42:31.336Z,8.00
2018-07-31T00:43:31.278Z,7.90
2018-07-31T00:44:31.220Z,8.30
2018-07-31T00:45:31.162Z,7.90
2018-07-31T00:46:31.104Z,7.60
2018-07-31T00:47:31.045Z,8.10
2018-07-31T00:48:30.987Z,8.20
2018-07-31T00:49:30.931Z,8.00
2018-07-31T00:50:30.872Z,7.40
2018-07-31T00:51:30.813Z,8.20
2018-07-31T00:52:30.755Z,7.90
2018-07-31T00:53:30.698Z,8.20
2018-07-31T00:54:30.639Z,8.20
2018-07-31T00:55:30.579Z,8.10
2018-07-31T00:56:30.523Z,7.90
2018-07-31T00:57:30.465Z,7.90
2018-07-31T00:58:30.409Z,7.60
2018-07-31T00:59:30.347Z,8.30
2018-07-31T01:00:30.292Z,7.80
2018-07-31T01:01:30.232Z,7.80
2018-07-31T01:02:30.174Z,8.10
2018-07-31T01:03:30.118Z,7.90
2018-07-31T01:04:30.058Z,7.70
2018-07-31T01:05:30.010Z,8.30
2018-07-31T01:06:29.940Z,7.70
2018-07-31T01:07:29.882Z,8.00
2018-07-31T01:08:29.825Z,7.90
2018-07-31T01:09:29.767Z,8.20
2018-07-31T01:10:29.708Z,8.10
2018-07-31T01:11:29.649Z,7.40
2018-07-31T01:12:29.592Z,7.70
2018-07-31T01:13:29.534Z,7.50
2018-07-31T01:14:29.474Z,7.30
2018-07-31T01:15:29.417Z,7.80
2018-07-31T01:16:29.358Z,7.70
2018-07-31T01:17:29.302Z,7.70
2018-07-31T01:18:29.241Z,8.30
2018-07-31T01:19:29.189Z,8.10
2018-07-31T01:20:29.126Z,8.10
2018-07-31T01:21:29.067Z,7.80
2018-07-31T01:22:29.009Z,8.30
2018-07-31T01:23:28.950Z,8.10
2018-07-31T01:24:28.891Z,8.20
2018-07-31T01:25:28.835Z,7.70
2018-07-31T01:26:28.776Z,8.20
2018-07-31T01:27:28.721Z,7.90
2018-07-31T01:28:28.660Z,8.50
2018-07-31T01:29:28.601Z,8.70
2018-07-31T01:30:28.541Z,8.30
2018-07-31T01:31:28.486Z,8.40
2018-07-31T01:32:28.426Z,8.40
2018-07-31T01:33:28.368Z,8.40
2018-07-31T01:34:28.307Z,8.90
2018-07-31T01:35:28.252Z,9.10
2018-07-31T01:36:28.193Z,9.20
2018-07-31T01:37:28.134Z,8.90
2018-07-31T01:38:28.076Z,9.10
2018-07-31T01:39:28.017Z,9.00
2018-07-31T01:40:27.956Z,8.80
2018-07-31T01:41:27.903Z,9.20
2018-07-31T01:42:27.840Z,9.30
2018-07-31T01:43:27.781Z,9.30
2018-07-31T01:44:27.726Z,8.80
2018-07-31T01:45:27.665Z,9.70
2018-07-31T01:46:27.608Z,8.30
2018-07-31T01:47:27.552Z,9.10
2018-07-31T01:48:27.490Z,8.90
2018-07-31T01:49:27.433Z,9.20
2018-07-31T01:50:27.373Z,9.10
2018-07-31T01:51:27.315Z,9.10
2018-07-31T01:52:27.258Z,9.10
2018-07-31T01:53:27.200Z,8.90
2018-07-31T01:54:27.140Z,9.20
2018-07-31T01:55:27.083Z,9.70
2018-07-31T01:56:27.024Z,8.80
2018-07-31T01:57:26.969Z,8.90
2018-07-31T01:58:26.907Z,9.50
2018-07-31T01:59:26.848Z,9.40
2018-07-31T02:00:26.790Z,9.40
2018-07-31T02:01:26.732Z,8.90
2018-07-31T02:02:26.673Z,8.80
2018-07-31T02:03:26.613Z,8.40
2018-07-31T02:04:26.559Z,8.30
2018-07-31T02:05:26.500Z,8.50
2018-07-31T02:06:26.440Z,8.70
2018-07-31T02:07:26.382Z,9.20
2018-07-31T02:08:26.324Z,8.80
2018-07-31T02:09:26.267Z,8.70
2018-07-31T02:10:26.204Z,8.50
2018-07-31T02:11:26.148Z,9.40
2018-07-31T02:12:26.090Z,8.70
2018-07-31T02:13:26.031Z,9.10
2018-07-31T02:14:25.973Z,8.20
2018-07-31T02:15:25.913Z,8.50
2018-07-31T02:16:25.856Z,8.70
2018-07-31T02:17:25.866Z,8.70
2018-07-31T02:18:25.737Z,8.70
2018-07-31T02:19:25.680Z,9.20
2018-07-31T02:20:25.621Z,8.60
2018-07-31T02:21:25.564Z,8.50
2018-07-31T02:22:25.503Z,8.70
2018-07-31T02:23:25.445Z,8.50
2018-07-31T02:24:25.388Z,8.90
2018-07-31T02:25:25.328Z,8.70
2018-07-31T02:26:25.275Z,9.20
2018-07-31T02:27:25.213Z,9.20
2018-07-31T02:28:25.396Z,8.80
2018-07-31T02:29:25.095Z,8.70
2018-07-31T02:30:25.040Z,9.00
2018-07-31T02:31:24.979Z,8.70
2018-07-31T02:32:24.922Z,9.10
2018-07-31T02:33:24.860Z,8.70
2018-07-31T02:34:24.803Z,8.50
2018-07-31T02:35:24.745Z,8.40
2018-07-31T02:36:24.686Z,8.70
2018-07-31T02:37:24.628Z,8.50
2018-07-31T02:38:24.571Z,9.10
2018-07-31T02:39:24.512Z,8.60
2018-07-31T02:40:24.465Z,8.10
2018-07-31T02:41:24.395Z,8.60
2018-07-31T02:42:24.334Z,8.60
2018-07-31T02:43:24.278Z,8.30
2018-07-31T02:44:24.220Z,8.50
2018-07-31T02:45:24.162Z,9.30
2018-07-31T02:46:24.100Z,8.70
2018-07-31T02:47:24.042Z,9.00
2018-07-31T02:48:23.985Z,8.70
2018-07-31T02:49:23.925Z,8.50
2018-07-31T02:50:23.867Z,9.00
2018-07-31T02:51:23.810Z,9.30
2018-07-31T02:52:23.751Z,8.90
2018-07-31T02:53:23.702Z,8.80
2018-07-31T02:54:23.633Z,8.70
2018-07-31T02:55:23.573Z,9.10
2018-07-31T02:56:23.517Z,9.50
2018-07-31T02:57:23.458Z,9.00
2018-07-31T02:58:23.400Z,9.10
2018-07-31T02:59:23.340Z,8.50
2018-07-31T03:00:23.286Z,9.50
2018-07-31T03:01:23.224Z,9.10
2018-07-31T03:02:23.165Z,9.00
2018-07-31T03:03:23.105Z,9.50
2018-07-31T03:04:23.051Z,9.20
2018-07-31T03:05:22.990Z,8.70
2018-07-31T03:06:22.930Z,9.10
2018-07-31T03:07:22.875Z,9.30
2018-07-31T03:08:22.815Z,8.90
2018-07-31T03:09:22.756Z,9.40
2018-07-31T03:10:22.697Z,8.80
2018-07-31T03:11:22.640Z,9.60
2018-07-31T03:12:22.580Z,8.80
2018-07-31T03:13:22.528Z,9.30
2018-07-31T03:14:22.468Z,9.30
2018-07-31T03:15:22.403Z,9.50
2018-07-31T03:16:22.346Z,9.60
2018-07-31T03:17:22.291Z,9.50
2018-07-31T03:18:22.228Z,9.30
2018-07-31T03:19:22.169Z,9.70
2018-07-31T03:20:22.111Z,9.40
2018-07-31T03:21:22.051Z,10.10
2018-07-31T03:22:21.994Z,9.30
2018-07-31T03:23:21.936Z,9.80
2018-07-31T03:24:21.878Z,9.80
2018-07-31T03:25:21.817Z,10.00
2018-07-31T03:26:21.760Z,9.70
2018-07-31T03:27:21.702Z,9.90
2018-07-31T03:28:21.643Z,9.00
2018-07-31T03:29:21.585Z,9.90
2018-07-31T03:30:21.525Z,9.80
2018-07-31T03:31:21.466Z,9.50
2018-07-31T03:32:21.407Z,9.80
2018-07-31T03:33:21.350Z,9.50
2018-07-31T03:34:21.289Z,9.10
2018-07-31T03:35:21.233Z,9.80
2018-07-31T03:36:21.173Z,9.60
2018-07-31T03:37:21.115Z,9.50
2018-07-31T03:38:21.055Z,9.70
2018-07-31T03:39:21.000Z,10.00
2018-07-31T03:40:20.938Z,9.10
2018-07-31T03:41:20.880Z,9.60
2018-07-31T03:42:20.820Z,9.50
2018-07-31T03:43:20.762Z,9.70
2018-07-31T03:44:20.704Z,9.40
2018-07-31T03:45:20.647Z,8.70
2018-07-31T03:46:20.586Z,9.60
2018-07-31T03:47:20.528Z,9.60
2018-07-31T03:48:20.471Z,9.10
2018-07-31T03:49:20.408Z,9.80
2018-07-31T03:50:20.352Z,10.00
2018-07-31T03:51:20.293Z,9.80
2018-07-31T03:52:20.234Z,9.50
2018-07-31T03:53:20.177Z,10.30
2018-07-31T03:54:20.118Z,10.60
2018-07-31T03:55:20.060Z,10.90
2018-07-31T03:56:20.036Z,10.60
2018-07-31T03:57:19.940Z,9.70
2018-07-31T03:58:19.881Z,10.40
2018-07-31T03:59:19.827Z,10.30
2018-07-31T04:00:19.762Z,10.60
2018-07-31T04:01:19.705Z,10.60
2018-07-31T04:02:19.647Z,10.60
2018-07-31T04:03:19.589Z,10.20
2018-07-31T04:04:19.532Z,9.70
2018-07-31T04:05:19.519Z,10.20
2018-07-31T04:06:19.412Z,9.60
2018-07-31T04:07:19.354Z,9.70
2018-07-31T04:08:19.304Z,10.30
2018-07-31T04:09:19.234Z,10.30
2018-07-31T04:10:19.177Z,9.90
2018-07-31T04:11:19.120Z,9.80
2018-07-31T04:12:19.059Z,10.00
2018-07-31T04:13:19.001Z,9.70
2018-07-31T04:14:18.943Z,10.00
2018-07-31T04:15:18.884Z,10.40
2018-07-31T04:16:18.825Z,10.60
2018-07-31T04:17:18.768Z,9.70
2018-07-31T04:18:18.712Z,10.40
2018-07-31T04:19:18.648Z,10.20
2018-07-31T04:20:18.595Z,10.40
2018-07-31T04:21:18.532Z,9.70
2018-07-31T04:22:18.473Z,10.50
2018-07-31T04:23:18.416Z,10.20
2018-07-31T04:24:18.355Z,10.20
2018-07-31T04:25:18.301Z,10.40
2018-07-31T04:26:18.237Z,10.20
2018-07-31T04:27:18.178Z,10.30
2018-07-31T04:28:18.120Z,10.30
2018-07-31T04:29:18.065Z,10.60
2018-07-31T04:30:18.004Z,10.60
2018-07-31T04:31:17.946Z,10.20
2018-07-31T04:32:17.888Z,10.30
2018-07-31T04:33:17.829Z,10.70
2018-07-31T04:34:17.769Z,10.50
2018-07-31T04:35:17.710Z,10.20
2018-07-31T04:36:17.687Z,10.30
2018-07-31T04:37:17.593Z,9.70
2018-07-31T04:38:17.540Z,10.10
2018-07-31T04:39:17.475Z,10.10
2018-07-31T04:40:17.416Z,10.00
2018-07-31T04:41:17.414Z,10.60
2018-07-31T04:42:17.316Z,9.90
2018-07-31T04:43:17.240Z,9.90
2018-07-31T04:44:17.181Z,10.70
2018-07-31T04:45:17.123Z,9.80
2018-07-31T04:46:17.064Z,10.10
2018-07-31T04:47:17.006Z,10.50
2018-07-31T04:48:16.947Z,10.70
2018-07-31T04:49:16.890Z,10.50
2018-07-31T04:50:16.845Z,10.50
2018-07-31T04:51:16.769Z,10.00
2018-07-31T04:52:16.711Z,10.70
2018-07-31T04:53:16.657Z,10.40
2018-07-31T04:54:16.594Z,10.00
2018-07-31T04:55:16.537Z,10.30
2018-07-31T04:56:16.479Z,10.30
2018-07-31T04:57:16.419Z,10.50
2018-07-31T04:58:16.360Z,10.10
2018-07-31T04:59:16.301Z,10.20
2018-07-31T05:00:16.243Z,10.00
2018-07-31T05:01:16.190Z,10.00
2018-07-31T05:02:16.127Z,10.50
2018-07-31T05:03:16.068Z,9.50
2018-07-31T05:04:16.023Z,10.30
2018-07-31T05:05:15.953Z,10.60
2018-07-31T05:06:15.891Z,10.10
2018-07-31T05:07:15.833Z,10.50
2018-07-31T05:08:15.776Z,10.00
2018-07-31T05:09:15.716Z,10.60
2018-07-31T05:10:15.657Z,10.00
2018-07-31T05:11:15.599Z,10.20
2018-07-31T05:12:15.541Z,10.00
2018-07-31T05:13:15.482Z,10.40
2018-07-31T05:14:15.424Z,11.00
2018-07-31T05:15:15.369Z,9.90
2018-07-31T05:16:15.308Z,10.00
2018-07-31T05:17:15.250Z,9.90
2018-07-31T05:18:15.228Z,9.80
2018-07-31T05:19:15.130Z,9.70
2018-07-31T05:20:15.078Z,10.40
2018-07-31T05:21:15.016Z,9.80
2018-07-31T05:22:14.956Z,10.10
2018-07-31T05:23:14.899Z,10.10
2018-07-31T05:24:14.841Z,10.10
2018-07-31T05:25:14.805Z,9.90
2018-07-31T05:26:14.724Z,9.80
2018-07-31T05:27:14.666Z,10.00
2018-07-31T05:28:14.607Z,9.60
2018-07-31T05:29:14.549Z,10.10
2018-07-31T05:30:14.489Z,10.40
2018-07-31T05:31:14.431Z,9.50
2018-07-31T05:32:14.372Z,10.20
2018-07-31T05:33:14.314Z,10.30
2018-07-31T05:34:14.256Z,10.40
2018-07-31T05:35:14.198Z,10.00
2018-07-31T05:36:14.140Z,9.30
2018-07-31T05:37:14.081Z,10.00
2018-07-31T05:38:14.022Z,9.60
2018-07-31T05:39:13.965Z,9.60
2018-07-31T05:40:13.908Z,10.20
2018-07-31T05:41:13.853Z,10.10
2018-07-31T05:42:13.788Z,9.90
2018-07-31T05:43:13.733Z,10.10
2018-07-31T05:44:13.674Z,9.50
2018-07-31T05:45:13.616Z,9.80
2018-07-31T05:46:13.571Z,10.00
2018-07-31T05:47:13.499Z,10.50
2018-07-31T05:48:13.442Z,10.00
2018-07-31T05:49:13.382Z,10.30
2018-07-31T05:50:13.327Z,9.40
2018-07-31T05:51:13.266Z,9.60
2018-07-31T05:52:13.208Z,9.80
2018-07-31T05:53:13.151Z,10.20
2018-07-31T05:54:13.092Z,9.70
2018-07-31T05:55:13.034Z,10.20
2018-07-31T05:56:12.977Z,9.60
2018-07-31T05:57:12.919Z,10.10
2018-07-31T05:58:12.860Z,9.30
2018-07-31T05:59:12.802Z,9.50
2018-07-31T06:00:12.744Z,10.20
2018-07-31T06:01:12.690Z,9.80
2018-07-31T06:02:12.628Z,10.10
2018-07-31T06:03:12.573Z,9.40
2018-07-31T06:04:12.513Z,10.30
2018-07-31T06:05:12.456Z,10.20
2018-07-31T06:06:12.398Z,10.20
2018-07-31T06:07:12.342Z,10.90
2018-07-31T06:08:12.282Z,9.40
2018-07-31T06:09:12.226Z,10.50
2018-07-31T06:10:12.165Z,10.10
2018-07-31T06:11:12.126Z,9.70
2018-07-31T06:12:12.051Z,9.90
2018-07-31T06:13:11.993Z,10.10
2018-07-31T06:14:11.932Z,10.40
2018-07-31T06:15:11.879Z,10.20
2018-07-31T06:16:11.820Z,9.10
2018-07-31T06:17:11.761Z,10.20
2018-07-31T06:18:11.704Z,10.20
2018-07-31T06:19:11.648Z,9.90
2018-07-31T06:20:11.591Z,9.60
2018-07-31T06:21:11.531Z,9.30
2018-07-31T06:22:11.473Z,9.60
2018-07-31T06:23:11.416Z,9.50
2018-07-31T06:24:11.359Z,9.80
2018-07-31T06:25:11.302Z,9.20
2018-07-31T06:26:11.243Z,9.40
2018-07-31T06:27:11.191Z,9.10
2018-07-31T06:28:11.129Z,8.80
2018-07-31T06:29:11.072Z,9.30
2018-07-31T06:30:11.013Z,9.10
2018-07-31T06:31:10.956Z,9.00
2018-07-31T06:32:10.899Z,9.00
2018-07-31T06:33:10.845Z,9.20
2018-07-31T06:34:10.784Z,9.40
2018-07-31T06:35:10.726Z,11.10
2018-07-31T06:36:10.671Z,10.80
2018-07-31T06:37:10.614Z,11.80
2018-07-31T06:38:10.554Z,11.20
2018-07-31T06:39:10.502Z,10.60
2018-07-31T06:40:10.437Z,9.90
2018-07-31T06:41:10.385Z,9.60
2018-07-31T06:42:10.329Z,9.10
2018-07-31T06:43:10.269Z,9.70
2018-07-31T06:44:10.213Z,9.60
2018-07-31T06:45:10.155Z,9.30
2018-07-31T06:46:10.100Z,9.70
2018-07-31T06:47:10.041Z,9.20
2018-07-31T06:48:09.985Z,9.20
2018-07-31T06:49:09.977Z,8.90
2018-07-31T06:50:09.869Z,9.40
2018-07-31T06:51:09.813Z,9.10
2018-07-31T06:52:09.757Z,9.20
2018-07-31T06:53:09.701Z,8.70
2018-07-31T06:54:09.644Z,9.10
2018-07-31T06:55:09.588Z,9.10
2018-07-31T06:56:09.530Z,8.70
2018-07-31T06:57:09.473Z,9.10
2018-07-31T06:58:09.418Z,9.30
2018-07-31T06:59:09.359Z,9.00
2018-07-31T07:00:09.304Z,9.00
2018-07-31T07:01:09.246Z,9.20
2018-07-31T07:02:09.254Z,8.90
2018-07-31T07:03:09.132Z,10.00
2018-07-31T07:04:09.077Z,9.30
2018-07-31T07:05:09.020Z,8.80
2018-07-31T07:06:08.963Z,8.70
2018-07-31T07:07:08.906Z,9.00
2018-07-31T07:08:08.851Z,9.80
2018-07-31T07:09:08.828Z,9.50
2018-07-31T07:10:08.740Z,8.80
2018-07-31T07:11:08.684Z,9.00
2018-07-31T07:12:08.624Z,8.70
2018-07-31T07:13:08.573Z,9.00
2018-07-31T07:14:08.516Z,8.70
2018-07-31T07:15:08.456Z,8.20
2018-07-31T07:16:08.400Z,8.50
2018-07-31T07:17:08.345Z,9.50
2018-07-31T07:18:08.287Z,8.50
2018-07-31T07:19:08.231Z,8.80
2018-07-31T07:20:08.173Z,8.60
2018-07-31T07:21:08.119Z,8.90
2018-07-31T07:22:08.063Z,8.90
2018-07-31T07:23:08.008Z,8.30
2018-07-31T07:24:07.951Z,8.70
2018-07-31T07:25:07.894Z,8.80
2018-07-31T07:26:07.839Z,9.50
2018-07-31T07:27:07.783Z,9.60
2018-07-31T07:28:07.732Z,9.50
2018-07-31T07:29:07.670Z,9.40
2018-07-31T07:30:07.615Z,9.60
2018-07-31T07:31:07.558Z,11.30
2018-07-31T07:32:07.503Z,9.40
2018-07-31T07:33:07.445Z,9.20
2018-07-31T07:34:07.391Z,9.50
2018-07-31T07:35:07.337Z,9.00
2018-07-31T07:36:07.279Z,9.20
2018-07-31T07:37:07.223Z,9.30
2018-07-31T07:38:07.167Z,9.50
2018-07-31T07:39:07.110Z,8.70
2018-07-31T07:40:07.109Z,8.80
2018-07-31T07:41:07.000Z,8.50
2018-07-31T07:42:06.945Z,9.10
2018-07-31T07:43:06.889Z,9.10
2018-07-31T07:44:06.832Z,8.50
2018-07-31T07:45:06.777Z,8.60
2018-07-31T07:46:06.721Z,9.20
2018-07-31T07:47:06.665Z,8.90
2018-07-31T07:48:06.613Z,8.90
2018-07-31T07:49:06.556Z,8.30
2018-07-31T07:50:06.497Z,8.30
2018-07-31T07:51:06.440Z,8.60
2018-07-31T07:52:06.388Z,8.50
2018-07-31T07:53:06.332Z,8.50
2018-07-31T07:54:06.333Z,8.40
2018-07-31T07:55:06.220Z,8.90
2018-07-31T07:56:06.165Z,9.30
2018-07-31T07:57:06.110Z,8.70
2018-07-31T07:58:06.054Z,9.30
2018-07-31T07:59:05.999Z,8.90
2018-07-31T08:00:05.942Z,8.90
2018-07-31T08:01:05.886Z,9.30
2018-07-31T08:02:05.830Z,8.70
2018-07-31T08:03:05.775Z,8.70
2018-07-31T08:04:05.746Z,8.80
2018-07-31T08:05:05.664Z,8.40
2018-07-31T08:06:05.608Z,8.70
2018-07-31T08:07:05.553Z,8.60
2018-07-31T08:08:05.498Z,8.30
2018-07-31T08:09:05.443Z,8.50
2018-07-31T08:10:05.387Z,8.40
2018-07-31T08:11:05.333Z,7.90
2018-07-31T08:12:05.278Z,8.20
2018-07-31T08:13:05.221Z,8.30
2018-07-31T08:14:05.166Z,9.20
2018-07-31T08:15:05.202Z,8.10
2018-07-31T08:16:05.056Z,8.00
2018-07-31T08:17:05.001Z,8.20
2018-07-31T08:18:04.946Z,8.00
2018-07-31T08:19:04.890Z,7.90
2018-07-31T08:20:04.834Z,7.60
2018-07-31T08:21:04.783Z,7.80
2018-07-31T08:22:04.724Z,7.00
2018-07-31T08:23:04.677Z,7.30
2018-07-31T08:24:04.613Z,6.90
2018-07-31T08:25:04.559Z,6.80
2018-07-31T08:26:04.503Z,6.30
2018-07-31T08:27:04.453Z,6.70
2018-07-31T08:28:04.392Z,7.20
2018-07-31T08:29:04.338Z,6.60
2018-07-31T08:30:04.283Z,6.70
2018-07-31T08:31:04.229Z,6.60
2018-07-31T08:32:04.172Z,7.30
2018-07-31T08:33:04.118Z,6.80
2018-07-31T08:34:04.064Z,6.60
2018-07-31T08:35:04.008Z,6.20
2018-07-31T08:36:03.954Z,6.80
2018-07-31T08:37:03.899Z,6.90
2018-07-31T08:38:03.841Z,7.70
2018-07-31T08:39:03.789Z,7.50
2018-07-31T08:40:03.736Z,7.30
2018-07-31T08:41:03.682Z,7.00
2018-07-31T08:42:03.624Z,7.00
2018-07-31T08:43:03.569Z,7.00
2018-07-31T08:44:03.515Z,7.20
2018-07-31T08:45:03.461Z,7.20
2018-07-31T08:46:03.408Z,7.20
2018-07-31T08:47:03.351Z,7.40
2018-07-31T08:48:03.296Z,6.70
2018-07-31T08:49:03.244Z,6.90
2018-07-31T08:50:03.189Z,7.20
2018-07-31T08:51:03.135Z,7.10
2018-07-31T08:52:03.079Z,6.70
2018-07-31T08:53:03.024Z,7.10
2018-07-31T08:54:02.969Z,7.40
2018-07-31T08:55:02.913Z,7.20
2018-07-31T08:56:02.860Z,7.40
2018-07-31T08:57:02.819Z,7.70
2018-07-31T08:58:02.751Z,7.30
2018-07-31T08:59:02.699Z,7.00
2018-07-31T09:00:02.643Z,7.30
2018-07-31T09:01:02.592Z,6.90
2018-07-31T09:02:02.534Z,7.10
2018-07-31T09:03:02.481Z,7.00
2018-07-31T09:04:02.427Z,6.80
2018-07-31T09:05:02.372Z,7.00
2018-07-31T09:06:02.317Z,7.10
2018-07-31T09:07:02.262Z,6.40
2018-07-31T09:08:02.212Z,6.80
2018-07-31T09:09:02.157Z,7.50
2018-07-31T09:10:02.100Z,7.50
2018-07-31T09:11:02.048Z,7.20
2018-07-31T09:12:01.994Z,6.90
2018-07-31T09:13:01.940Z,6.80
2018-07-31T09:14:01.889Z,6.90
2018-07-31T09:15:01.843Z,6.90
2018-07-31T09:16:01.777Z,6.50
2018-07-31T09:17:01.723Z,6.40
2018-07-31T09:18:01.669Z,6.40
2018-07-31T09:19:01.630Z,7.90
2018-07-31T09:20:01.563Z,6.40
2018-07-31T09:21:01.507Z,6.50
2018-07-31T09:22:01.458Z,6.30
2018-07-31T09:23:01.400Z,6.50
2018-07-31T09:24:01.346Z,6.50
2018-07-31T09:25:01.302Z,6.00
2018-07-31T09:26:01.238Z,6.60
2018-07-31T09:27:01.184Z,6.60
2018-07-31T09:28:01.130Z,6.50
2018-07-31T09:29:01.076Z,6.50
2018-07-31T09:30:01.022Z,6.60
2018-07-31T09:31:01.141Z,6.80
2018-07-31T09:32:00.932Z,6.90
2018-07-31T09:33:00.862Z,6.80
2018-07-31T09:34:00.807Z,6.80
2018-07-31T09:35:00.754Z,6.40
2018-07-31T09:36:00.700Z,6.50
2018-07-31T09:37:00.649Z,6.30
2018-07-31T09:38:00.608Z,6.90
2018-07-31T09:39:00.539Z,7.10
2018-07-31T09:40:00.486Z,6.60
2018-07-31T09:41:00.434Z,6.50
2018-07-31T09:42:00.380Z,6.70
2018-07-31T09:43:00.326Z,6.40
2018-07-31T09:44:00.274Z,6.60
2018-07-31T09:45:00.221Z,5.90
2018-07-31T09:46:00.166Z,5.90
2018-07-31T09:47:00.114Z,6.20
2018-07-31T09:48:00.067Z,6.80
2018-07-31T09:49:00.012Z,6.70
2018-07-31T09:49:59.954Z,7.00
2018-07-31T09:50:59.899Z,6.50
2018-07-31T09:51:59.853Z,6.30
2018-07-31T09:52:59.800Z,6.80
2018-07-31T09:53:59.747Z,6.70
2018-07-31T09:54:59.697Z,6.20
2018-07-31T09:55:59.645Z,6.80
2018-07-31T09:56:59.595Z,6.70
2018-07-31T09:57:59.543Z,7.10
2018-07-31T09:58:59.501Z,6.50
2018-07-31T09:59:59.444Z,6.70
2018-07-31T10:00:59.394Z,6.50
2018-07-31T10:01:59.352Z,6.90
2018-07-31T10:02:59.295Z,10.10
2018-07-31T10:03:59.246Z,7.10
2018-07-31T10:04:59.221Z,6.20
2018-07-31T10:05:59.151Z,6.40
2018-07-31T10:06:59.103Z,6.00
2018-07-31T10:07:59.054Z,6.00
2018-07-31T10:08:59.007Z,6.10
2018-07-31T10:09:58.958Z,5.90
2018-07-31T10:10:58.911Z,6.40
2018-07-31T10:11:58.882Z,5.70
2018-07-31T10:12:58.817Z,5.80
2018-07-31T10:13:58.771Z,5.30
2018-07-31T10:14:58.725Z,5.70
2018-07-31T10:15:58.679Z,6.20
2018-07-31T10:16:58.634Z,6.00
2018-07-31T10:17:58.680Z,5.90
2018-07-31T10:18:58.539Z,5.40
2018-07-31T10:19:58.492Z,5.90
2018-07-31T10:20:58.447Z,6.00
2018-07-31T10:21:58.401Z,5.80
2018-07-31T10:22:58.355Z,6.20
2018-07-31T10:23:58.310Z,5.70
2018-07-31T10:24:58.263Z,5.80
2018-07-31T10:25:58.224Z,5.60
2018-07-31T10:26:58.171Z,5.10
2018-07-31T10:27:58.128Z,5.50
2018-07-31T10:28:58.080Z,5.60
2018-07-31T10:29:58.035Z,6.00
2018-07-31T10:30:58.066Z,5.90
2018-07-31T10:31:57.948Z,5.60
2018-07-31T10:32:57.901Z,5.30
2018-07-31T10:33:57.856Z,5.00
2018-07-31T10:34:57.806Z,5.40
2018-07-31T10:35:57.764Z,5.50
2018-07-31T10:36:57.716Z,5.50
2018-07-31T10:37:57.669Z,5.40
2018-07-31T10:38:57.627Z,5.30
2018-07-31T10:39:57.576Z,5.50
2018-07-31T10:40:57.531Z,5.60
2018-07-31T10:41:57.481Z,5.40
2018-07-31T10:42:57.436Z,5.40
2018-07-31T10:43:57.422Z,5.50
2018-07-31T10:44:57.339Z,5.30
2018-07-31T10:45:57.291Z,5.80
2018-07-31T10:46:57.244Z,5.70
2018-07-31T10:47:57.200Z,6.40
2018-07-31T10:48:57.159Z,5.80
2018-07-31T10:49:57.103Z,5.60
2018-07-31T10:50:57.057Z,5.50
2018-07-31T10:51:57.008Z,5.70
2018-07-31T10:52:56.959Z,5.40
2018-07-31T10:53:56.912Z,5.80
2018-07-31T10:54:56.870Z,5.70
2018-07-31T10:55:56.816Z,6.00
2018-07-31T10:56:56.769Z,5.90
2018-07-31T10:57:56.756Z,6.20
2018-07-31T10:58:56.676Z,6.20
2018-07-31T10:59:56.653Z,6.10
2018-07-31T11:00:56.582Z,6.20
2018-07-31T11:01:56.533Z,5.80
2018-07-31T11:02:56.589Z,6.20
2018-07-31T11:03:56.517Z,5.90
2018-07-31T11:04:56.394Z,6.10
2018-07-31T11:05:56.346Z,5.50
2018-07-31T11:06:56.299Z,5.70
2018-07-31T11:07:56.252Z,5.70
2018-07-31T11:08:56.208Z,5.60
2018-07-31T11:09:56.158Z,5.90
2018-07-31T11:10:56.112Z,5.50
2018-07-31T11:11:56.067Z,5.70
2018-07-31T11:12:56.018Z,6.20
2018-07-31T11:13:55.969Z,5.60
2018-07-31T11:14:55.922Z,5.60
2018-07-31T11:15:55.880Z,5.50
2018-07-31T11:16:55.828Z,6.10
2018-07-31T11:17:55.783Z,5.90
2018-07-31T11:18:55.732Z,5.70
2018-07-31T11:19:55.683Z,5.80
2018-07-31T11:20:55.691Z,5.80
2018-07-31T11:21:55.591Z,5.70
2018-07-31T11:22:55.540Z,6.10
2018-07-31T11:23:55.492Z,5.80
2018-07-31T11:24:55.445Z,5.60
2018-07-31T11:25:55.395Z,6.00
2018-07-31T11:26:55.346Z,5.70
2018-07-31T11:27:55.297Z,5.90
2018-07-31T11:28:55.247Z,6.00
2018-07-31T11:29:55.198Z,5.30
2018-07-31T11:30:55.149Z,6.00
2018-07-31T11:31:55.100Z,5.80
2018-07-31T11:32:55.059Z,5.30
2018-07-31T11:33:54.999Z,5.50
2018-07-31T11:34:54.947Z,5.80
2018-07-31T11:35:54.897Z,5.80
2018-07-31T11:36:54.844Z,5.80
2018-07-31T11:37:54.794Z,5.90
2018-07-31T11:38:54.744Z,6.10
2018-07-31T11:39:54.692Z,6.10
2018-07-31T11:40:54.643Z,6.10
2018-07-31T11:41:54.592Z,5.70
2018-07-31T11:42:54.538Z,5.50
2018-07-31T11:43:54.523Z,5.90
2018-07-31T11:44:54.437Z,5.80
2018-07-31T11:45:54.385Z,5.80
2018-07-31T11:46:54.335Z,5.90
2018-07-31T11:47:54.281Z,6.00
2018-07-31T11:48:54.234Z,5.70
2018-07-31T11:49:54.318Z,5.80
2018-07-31T11:50:54.127Z,6.30
2018-07-31T11:51:54.075Z,5.90
2018-07-31T11:52:54.022Z,6.00
2018-07-31T11:53:53.969Z,6.00
2018-07-31T11:54:53.919Z,6.20
2018-07-31T11:55:53.864Z,5.90
2018-07-31T11:56:53.814Z,5.70
2018-07-31T11:57:53.761Z,5.80
2018-07-31T11:58:53.711Z,6.10
2018-07-31T11:59:53.655Z,5.50
2018-07-31T12:00:53.605Z,6.00
2018-07-31T12:01:53.550Z,5.50
2018-07-31T12:02:53.501Z,5.20
2018-07-31T12:03:53.445Z,5.70
2018-07-31T12:04:53.396Z,5.90
2018-07-31T12:05:53.340Z,6.00
2018-07-31T12:06:53.287Z,6.40
2018-07-31T12:07:53.237Z,6.10
2018-07-31T12:08:53.181Z,6.40
2018-07-31T12:09:53.165Z,5.90
2018-07-31T12:10:53.076Z,6.00
2018-07-31T12:11:53.024Z,10.20
2018-07-31T12:12:52.971Z,7.50
2018-07-31T12:13:52.934Z,6.30
2018-07-31T12:14:52.868Z,6.30
2018-07-31T12:15:52.816Z,6.30
2018-07-31T12:16:52.766Z,6.20
2018-07-31T12:17:52.707Z,6.40
2018-07-31T12:18:52.656Z,6.00
2018-07-31T12:19:52.604Z,6.10
2018-07-31T12:20:52.600Z,6.40
2018-07-31T12:21:52.501Z,6.30
2018-07-31T12:22:52.445Z,5.90
2018-07-31T12:23:52.393Z,5.60
2018-07-31T12:24:52.341Z,6.20
2018-07-31T12:25:52.287Z,5.90
2018-07-31T12:26:52.255Z,5.70
2018-07-31T12:27:52.183Z,6.30
2018-07-31T12:28:52.128Z,6.10
2018-07-31T12:29:52.074Z,5.90
2018-07-31T12:30:52.024Z,5.80
2018-07-31T12:31:51.971Z,5.90
2018-07-31T12:32:51.964Z,5.80
2018-07-31T12:33:51.864Z,6.10
2018-07-31T12:34:51.811Z,6.50
2018-07-31T12:35:51.758Z,5.60
2018-07-31T12:36:51.705Z,6.00
2018-07-31T12:37:51.653Z,5.70
2018-07-31T12:38:51.598Z,5.70
2018-07-31T12:39:51.548Z,5.90
2018-07-31T12:40:51.494Z,5.40
2018-07-31T12:41:51.441Z,6.00
2018-07-31T12:42:51.389Z,5.80
2018-07-31T12:43:51.339Z,5.40
2018-07-31T12:44:51.284Z,5.80
2018-07-31T12:45:51.231Z,5.40
2018-07-31T12:46:51.176Z,5.90
2018-07-31T12:47:51.124Z,5.80
2018-07-31T12:48:51.071Z,5.90
2018-07-31T12:49:51.022Z,5.90
2018-07-31T12:50:50.965Z,5.70
2018-07-31T12:51:50.915Z,6.00
2018-07-31T12:52:50.863Z,5.80
2018-07-31T12:53:50.808Z,6.00
2018-07-31T12:54:50.758Z,5.60
2018-07-31T12:55:50.705Z,5.70
2018-07-31T12:56:50.649Z,5.50
2018-07-31T12:57:50.596Z,5.20
2018-07-31T12:58:50.544Z,5.30
2018-07-31T12:59:50.490Z,5.60
2018-07-31T13:00:50.438Z,5.10
2018-07-31T13:01:50.387Z,5.10
2018-07-31T13:02:50.336Z,5.30
2018-07-31T13:03:50.280Z,5.30
2018-07-31T13:04:50.226Z,5.40
2018-07-31T13:05:50.173Z,5.50
2018-07-31T13:06:50.119Z,5.70
2018-07-31T13:07:50.069Z,5.60
2018-07-31T13:08:50.016Z,5.50
2018-07-31T13:09:49.964Z,5.40
2018-07-31T13:10:49.912Z,5.30
2018-07-31T13:11:49.859Z,5.90
2018-07-31T13:12:49.805Z,5.50
2018-07-31T13:13:49.750Z,5.30